Time;durP1;ratioP1;P1;durP2;ratioP2;P2;SDS_P1;SDS_P2;PMS_P1;PMS_P2;Temp;Humidity;BMP_temperature;BMP_pressure;BME280_temperature;BME280_humidity;BME280_pressure;Samples;Min_cycle;Max_cycle;Signal;HPM_P1;HPM_P2
2023/04/10 00:00:09;;;;;;;47.20;27.77;;;;;;;-144.57;100.00;62443.72;5073485;28;20075;-65
2023/04/10 00:02:36;;;;;;;52.53;27.65;;;;;;;-144.57;100.00;62443.72;5074757;28;20528;-64
2023/04/10 00:05:01;;;;;;;52.63;27.77;;;;;;;-144.57;100.00;62443.72;5073475;28;20436;-64
2023/04/10 00:07:28;;;;;;;47.20;24.95;;;;;;;-144.57;100.00;62443.72;5074578;28;20131;-65
2023/04/10 00:09:54;;;;;;;45.03;21.83;;;;;;;-144.57;100.00;62443.72;5073118;28;20127;-63
2023/04/10 00:12:20;;;;;;;36.97;20.52;;;;;;;-144.57;100.00;62443.72;5074445;28;20140;-65
2023/04/10 00:14:46;;;;;;;34.50;18.60;;;;;;;-144.57;100.00;62443.72;5071923;28;20623;-65
2023/04/10 00:17:12;;;;;;;42.15;23.65;;;;;;;-144.57;100.00;62443.72;5073134;28;20146;-65
2023/04/10 00:19:37;;;;;;;48.30;26.25;;;;;;;-144.57;100.00;62443.72;5073095;28;20409;-64
2023/04/10 00:22:03;;;;;;;47.65;26.75;;;;;;;-144.57;100.00;62443.72;5074271;28;20041;-65
2023/04/10 00:24:29;;;;;;;44.72;24.83;;;;;;;-144.57;100.00;62443.72;5072989;28;20075;-64
2023/04/10 00:26:56;;;;;;;47.60;26.20;;;;;;;-144.57;100.00;62443.72;5072852;28;20076;-63
2023/04/10 00:29:22;;;;;;;44.20;25.08;;;;;;;-144.57;100.00;62443.72;5072726;28;20048;-63
2023/04/10 00:31:48;;;;;;;40.22;25.55;;;;;;;-144.57;100.00;62443.72;5073120;28;20083;-64
2023/04/10 00:34:14;;;;;;;43.83;25.55;;;;;;;-144.57;100.00;62443.72;5074128;28;20076;-63
2023/04/10 00:36:41;;;;;;;43.97;24.92;;;;;;;-144.57;100.00;62443.72;5072872;28;20051;-63
2023/04/10 00:39:10;;;;;;;43.67;22.42;;;;;;;-144.57;100.00;62443.72;5074211;28;20056;-63
2023/04/10 00:41:35;;;;;;;47.05;22.23;;;;;;;-144.57;100.00;62443.72;5073263;28;20044;-62
2023/04/10 00:44:01;;;;;;;41.10;22.30;;;;;;;-144.57;100.00;62443.72;5073116;28;20127;-64
2023/04/10 00:46:27;;;;;;;36.20;21.95;;;;;;;-144.57;100.00;62443.72;5073906;28;20044;-64
2023/04/10 00:48:53;;;;;;;33.55;21.55;;;;;;;-144.57;100.00;62443.72;5056226;28;20076;-63
2023/04/10 00:51:19;;;;;;;34.47;21.10;;;;;;;-144.57;100.00;62443.72;5055222;28;20048;-63
2023/04/10 00:53:53;;;;;;;35.50;20.73;;;;;;;-144.57;100.00;62443.72;5071967;28;20174;-62
2023/04/10 00:56:20;;;;;;;27.48;17.60;;;;;;;-144.57;100.00;62443.72;5072091;28;20435;-63
2023/04/10 00:58:47;;;;;;;33.90;20.75;;;;;;;-144.57;100.00;62443.72;5072576;28;20395;-62
2023/04/10 01:01:13;;;;;;;37.13;20.92;;;;;;;-144.57;100.00;62443.72;5055521;28;20075;-63
2023/04/10 01:03:39;;;;;;;26.80;17.55;;;;;;;-144.57;100.00;62443.72;5072270;28;20047;-64
2023/04/10 01:06:10;;;;;;;28.67;16.98;;;;;;;-144.57;100.00;62443.72;5072292;28;20422;-62
2023/04/10 01:08:44;;;;;;;25.20;16.65;;;;;;;-144.57;100.00;62443.72;5072077;28;20071;-63
2023/04/10 01:11:25;;;;;;;37.05;21.95;;;;;;;-144.57;100.00;62443.72;5073651;28;20045;-63
2023/04/10 01:14:04;;;;;;;29.83;19.10;;;;;;;-144.57;100.00;62443.72;5071852;28;20063;-62
2023/04/10 01:16:35;;;;;;;33.75;19.30;;;;;;;-144.57;100.00;62443.72;5073478;28;20059;-62
2023/04/10 01:19:38;;;;;;;30.80;19.13;;;;;;;-144.57;100.00;62443.72;5038829;28;20044;-63
2023/04/10 01:22:09;;;;;;;27.70;18.17;;;;;;;-144.57;100.00;62443.72;5073210;28;20094;-64
2023/04/10 01:25:16;;;;;;;30.25;19.15;;;;;;;-144.57;100.00;62443.72;5071665;28;20036;-62
2023/04/10 01:27:45;;;;;;;33.25;18.95;;;;;;;-144.57;100.00;62443.72;5066665;28;20044;-63
2023/04/10 01:30:14;;;;;;;30.92;16.98;;;;;;;-144.57;100.00;62443.72;5068434;28;20136;-63
2023/04/10 01:32:40;;;;;;;31.23;19.38;;;;;;;-144.57;100.00;62443.72;5056229;28;20080;-62
2023/04/10 01:35:07;;;;;;;29.65;17.80;;;;;;;-144.57;100.00;62443.72;5071089;28;20072;-62
2023/04/10 01:37:37;;;;;;;24.52;15.02;;;;;;;-144.57;100.00;62443.72;5071479;28;20098;-63
2023/04/10 01:40:06;;;;;;;26.20;16.13;;;;;;;-144.57;100.00;62443.72;5070916;28;20036;-62
2023/04/10 01:42:36;;;;;;;26.33;16.55;;;;;;;-144.57;100.00;62443.72;5054702;28;20043;-63
2023/04/10 01:45:03;;;;;;;26.73;16.13;;;;;;;-144.57;100.00;62443.72;5071762;28;20036;-62
2023/04/10 01:47:29;;;;;;;32.85;16.73;;;;;;;-144.57;100.00;62443.72;5051668;28;20040;-63
2023/04/10 01:49:55;;;;;;;25.88;13.63;;;;;;;-144.57;100.00;62443.72;5070623;28;20090;-63
2023/04/10 01:52:22;;;;;;;20.63;12.52;;;;;;;-144.57;100.00;62443.72;5054780;28;20064;-62
2023/04/10 01:54:54;;;;;;;19.08;12.63;;;;;;;-144.57;100.00;62443.72;5051202;28;20041;-63
2023/04/10 01:57:25;;;;;;;18.55;11.43;;;;;;;-144.57;100.00;62443.72;5033510;28;20053;-62
2023/04/10 01:59:54;;;;;;;21.13;10.57;;;;;;;-144.57;100.00;62443.72;5054969;28;20458;-63
2023/04/10 02:02:20;;;;;;;15.57;8.90;;;;;;;-144.57;100.00;62443.72;5070756;28;20052;-62
2023/04/10 02:04:50;;;;;;;13.07;8.45;;;;;;;-144.57;100.00;62443.72;5070037;28;20051;-63
2023/04/10 02:07:21;;;;;;;13.00;8.20;;;;;;;-144.57;100.00;62443.72;5070227;28;20067;-62
2023/04/10 02:10:12;;;;;;;15.05;7.82;;;;;;;-144.57;100.00;62443.72;5072109;28;20482;-63
2023/04/10 02:12:49;;;;;;;9.75;6.68;;;;;;;-144.57;100.00;62443.72;5072322;28;20087;-63
2023/04/10 02:15:18;;;;;;;8.85;5.95;;;;;;;-144.57;100.00;62443.72;5050940;28;20045;-62
2023/04/10 02:17:44;;;;;;;10.35;6.55;;;;;;;-144.57;100.00;62443.72;5051002;28;20052;-63
2023/04/10 02:20:10;;;;;;;12.05;6.70;;;;;;;-144.57;100.00;62443.72;5047140;28;20169;-63
2023/04/10 02:22:36;;;;;;;12.10;8.48;;;;;;;-144.57;100.00;62443.72;5070754;28;20045;-64
2023/04/10 02:25:04;;;;;;;8.82;6.65;;;;;;;-144.57;100.00;62443.72;5070766;28;20052;-63
2023/04/10 02:27:33;;;;;;;12.13;6.90;;;;;;;-144.57;100.00;62443.72;5070825;28;20471;-62
2023/04/10 02:29:59;;;;;;;8.73;6.45;;;;;;;-144.57;100.00;62443.72;5070660;28;20035;-63
2023/04/10 02:32:26;;;;;;;10.85;7.25;;;;;;;-144.57;100.00;62443.72;5053157;28;20048;-64
2023/04/10 02:34:52;;;;;;;9.85;7.40;;;;;;;-144.57;100.00;62443.72;5070372;28;20036;-63
2023/04/10 02:37:18;;;;;;;8.93;6.85;;;;;;;-144.57;100.00;62443.72;5071787;28;20040;-64
2023/04/10 02:39:44;;;;;;;11.15;7.40;;;;;;;-144.57;100.00;62443.72;5070266;28;20040;-63
2023/04/10 02:42:10;;;;;;;10.88;6.63;;;;;;;-144.57;100.00;62443.72;5070410;28;20044;-62
2023/04/10 02:44:38;;;;;;;9.82;6.05;;;;;;;-144.57;100.00;62443.72;5070189;28;20516;-62
2023/04/10 02:47:05;;;;;;;7.90;6.43;;;;;;;-144.57;100.00;62443.72;5053859;28;20091;-63
2023/04/10 02:49:36;;;;;;;11.63;6.53;;;;;;;-144.57;100.00;62443.72;5070070;28;20490;-63
2023/04/10 02:52:09;;;;;;;11.18;7.03;;;;;;;-144.57;100.00;62443.72;5069570;28;20059;-62
2023/04/10 02:54:36;;;;;;;9.98;7.00;;;;;;;-144.57;100.00;62443.72;5070339;28;20040;-62
2023/04/10 02:57:03;;;;;;;11.55;6.95;;;;;;;-144.57;100.00;62443.72;5035781;28;20121;-63
2023/04/10 02:59:29;;;;;;;9.68;7.20;;;;;;;-144.57;100.00;62443.72;5070017;28;20044;-62
2023/04/10 03:01:57;;;;;;;10.48;7.28;;;;;;;-144.57;100.00;62443.72;5052736;28;20051;-63
2023/04/10 03:04:22;;;;;;;8.52;6.57;;;;;;;-144.57;100.00;62443.72;5050040;28;20049;-63
2023/04/10 03:06:48;;;;;;;9.43;7.00;;;;;;;-144.57;100.00;62443.72;5050130;28;20114;-64
2023/04/10 03:09:14;;;;;;;9.05;6.85;;;;;;;-144.57;100.00;62443.72;5050237;28;20136;-62
2023/04/10 03:11:39;;;;;;;10.82;7.97;;;;;;;-144.57;100.00;62443.72;5064502;28;20136;-62
2023/04/10 03:14:08;;;;;;;10.52;7.43;;;;;;;-144.57;100.00;62443.72;5070375;28;20044;-60
2023/04/10 03:16:34;;;;;;;10.75;6.60;;;;;;;-144.57;100.00;62443.72;5069505;28;20048;-62
2023/04/10 03:19:02;;;;;;;9.88;6.65;;;;;;;-144.57;100.00;62443.72;5071261;28;20131;-62
2023/04/10 03:21:28;;;;;;;9.57;6.93;;;;;;;-144.57;100.00;62443.72;5070707;28;20048;-62
2023/04/10 03:23:55;;;;;;;11.32;7.70;;;;;;;-144.57;100.00;62443.72;5069961;28;20056;-61
2023/04/10 03:26:22;;;;;;;13.02;7.18;;;;;;;-144.57;100.00;62443.72;5069936;28;20414;-63
2023/04/10 03:28:49;;;;;;;9.63;6.97;;;;;;;-144.57;100.00;62443.72;5069858;28;20063;-63
2023/04/10 03:31:15;;;;;;;9.55;6.13;;;;;;;-144.57;100.00;62443.72;5070878;28;20482;-63
2023/04/10 03:33:43;;;;;;;12.43;7.70;;;;;;;-144.57;100.00;62443.72;5053607;28;20040;-63
2023/04/10 03:36:10;;;;;;;13.00;9.13;;;;;;;-144.57;100.00;62443.72;5070724;28;20101;-63
2023/04/10 03:38:36;;;;;;;17.00;8.90;;;;;;;-144.57;100.00;62443.72;5069738;28;20040;-63
2023/04/10 03:41:02;;;;;;;12.40;7.80;;;;;;;-144.57;100.00;62443.72;5069923;28;20037;-63
2023/04/10 03:43:30;;;;;;;12.10;7.57;;;;;;;-144.57;100.00;62443.72;5069580;28;20045;-62
2023/04/10 03:45:57;;;;;;;16.10;7.85;;;;;;;-144.57;100.00;62443.72;5053331;28;20106;-61
2023/04/10 03:48:26;;;;;;;16.58;8.25;;;;;;;-144.57;100.00;62443.72;5069506;28;20565;-64
2023/04/10 03:50:53;;;;;;;12.57;7.78;;;;;;;-144.57;100.00;62443.72;5052895;28;20422;-63
2023/04/10 03:53:19;;;;;;;11.40;8.10;;;;;;;-144.57;100.00;62443.72;5069412;28;20559;-64
2023/04/10 03:55:45;;;;;;;14.20;8.25;;;;;;;-144.57;100.00;62443.72;5069564;28;20052;-63
2023/04/10 03:58:12;;;;;;;17.05;8.68;;;;;;;-144.57;100.00;62443.72;5069523;28;20045;-64
2023/04/10 04:00:38;;;;;;;16.05;8.13;;;;;;;-144.57;100.00;62443.72;5053138;28;20123;-63
2023/04/10 04:03:27;;;;;;;14.95;8.82;;;;;;;-144.57;100.00;62443.72;5067441;28;20578;-63
2023/04/10 04:05:53;;;;;;;14.90;8.75;;;;;;;-144.57;100.00;62443.72;5071243;28;20049;-62
2023/04/10 04:08:40;;;;;;;18.83;9.07;;;;;;;-144.57;100.00;62443.72;5048598;28;20087;-63
2023/04/10 04:11:19;;;;;;;13.07;8.73;;;;;;;-144.57;100.00;62443.72;5032625;28;20053;-62
2023/04/10 04:13:58;;;;;;;15.02;8.38;;;;;;;-144.57;100.00;62443.72;5049291;28;20035;-62
2023/04/10 04:16:44;;;;;;;15.93;9.43;;;;;;;-144.57;100.00;62443.72;5040470;28;20428;-63
2023/04/10 04:19:24;;;;;;;;;;;;;;;-144.57;100.00;62443.72;5045110;28;20441;-63
2023/04/10 04:22:19;;;;;;;22.52;9.70;;;;;;;-144.57;100.00;62443.72;5046612;28;20024;-62
2023/04/10 04:24:57;;;;;;;15.63;9.30;;;;;;;-144.57;100.00;62443.72;5042226;28;20051;-63
2023/04/10 04:27:49;;;;;;;13.82;9.88;;;;;;;-144.57;100.00;62443.72;5062571;28;20040;-67
2023/04/10 04:30:33;;;;;;;18.15;9.93;;;;;;;-144.57;100.00;62443.72;5063243;28;20410;-66
2023/04/10 04:33:12;;;;;;;17.15;9.73;;;;;;;-144.57;100.00;62443.72;5061365;28;20049;-63
2023/04/10 04:35:58;;;;;;;16.50;10.20;;;;;;;-144.57;100.00;62443.72;5063358;28;20122;-63
2023/04/10 04:38:53;;;;;;;20.42;10.00;;;;;;;-144.57;100.00;62443.72;5046903;28;20083;-63
2023/04/10 04:41:42;;;;;;;14.90;10.10;;;;;;;-144.57;100.00;62443.72;5053963;28;20075;-62
2023/04/10 04:44:14;;;;;;;12.18;9.75;;;;;;;-144.57;100.00;62443.72;5066391;28;20570;-60
2023/04/10 04:46:49;;;;;;;13.10;9.35;;;;;;;-144.57;100.00;62443.72;5071822;28;20098;-63
2023/04/10 04:49:35;;;;;;;14.30;8.88;;;;;;;-144.57;100.00;62443.72;5067542;28;20625;-63
2023/04/10 04:52:19;;;;;;;12.10;9.20;;;;;;;-144.57;100.00;62443.72;5071529;28;20144;-63
2023/04/10 04:55:06;;;;;;;21.83;11.65;;;;;;;-144.57;100.00;62443.72;5053436;28;20086;-63
2023/04/10 04:57:50;;;;;;;12.55;8.98;;;;;;;-144.57;100.00;62443.72;5071427;28;20048;-62
2023/04/10 05:00:23;;;;;;;12.57;9.63;;;;;;;-144.57;100.00;62443.72;5070152;28;20032;-62
2023/04/10 05:03:05;;;;;;;14.27;9.35;;;;;;;-144.57;100.00;62443.72;5070714;28;20040;-62
2023/04/10 05:05:51;;;;;;;14.95;9.25;;;;;;;-144.57;100.00;62443.72;5071048;28;20370;-62
2023/04/10 05:08:20;;;;;;;14.30;10.88;;;;;;;-144.57;100.00;62443.72;5072895;28;20516;-64
2023/04/10 05:11:06;;;;;;;13.32;9.07;;;;;;;-144.57;100.00;62443.72;5070662;28;20497;-62
2023/04/10 05:13:52;;;;;;;17.27;9.50;;;;;;;-144.57;100.00;62443.72;5069584;28;20056;-66
2023/04/10 05:16:40;;;;;;;12.25;9.65;;;;;;;-144.57;100.00;62443.72;5067862;28;20052;-68
2023/04/10 05:19:29;;;;;;;13.77;8.55;;;;;;;-144.57;100.00;62443.72;5050134;28;20053;-68
2023/04/10 05:22:13;;;;;;;13.65;8.73;;;;;;;-144.57;100.00;62443.72;5069948;28;20059;-63
2023/04/10 05:24:44;;;;;;;15.57;9.68;;;;;;;-144.57;100.00;62443.72;5049746;28;20036;-62
2023/04/10 05:27:10;;;;;;;11.93;9.18;;;;;;;-144.57;100.00;62443.72;5049381;28;20495;-65
2023/04/10 05:29:54;;;;;;;15.32;9.40;;;;;;;-144.57;100.00;62443.72;5058684;28;20055;-62
2023/04/10 05:32:40;;;;;;;12.27;9.23;;;;;;;-144.57;100.00;62443.72;5068711;28;20445;-63
2023/04/10 05:35:37;;;;;;;13.40;9.40;;;;;;;-144.57;100.00;62443.72;5048577;28;20044;-64
2023/04/10 05:38:18;;;;;;;23.23;9.45;;;;;;;-144.57;100.00;62443.72;5048916;28;20052;-63
2023/04/10 05:40:55;;;;;;;25.42;10.82;;;;;;;-144.57;100.00;62443.72;5063142;28;20044;-63
2023/04/10 05:43:38;;;;;;;14.93;9.82;;;;;;;-144.57;100.00;62443.72;5070609;28;20044;-63
2023/04/10 05:46:30;;;;;;;12.73;9.23;;;;;;;-144.57;100.00;62443.72;5057965;28;20063;-64
2023/04/10 05:49:19;;;;;;;13.65;8.50;;;;;;;-144.57;100.00;62443.72;5058182;28;20049;-60
2023/04/10 05:52:17;;;;;;;17.02;8.55;;;;;;;-144.57;100.00;62443.72;5038382;28;20453;-60
2023/04/10 05:55:21;;;;;;;14.02;9.13;;;;;;;-144.57;100.00;62443.72;5033033;28;20052;-61
2023/04/10 05:58:13;;;;;;;10.48;8.38;;;;;;;-144.57;100.00;62443.72;5033032;28;20060;-60
2023/04/10 06:00:58;;;;;;;23.67;10.18;;;;;;;-144.57;100.00;62443.72;5057459;28;20137;-58
2023/04/10 06:03:53;;;;;;;14.32;9.23;;;;;;;-144.57;100.00;62443.72;5060816;28;20061;-60
2023/04/10 06:06:21;;;;;;;14.30;9.80;;;;;;;-144.57;100.00;62443.72;5068030;28;20040;-61
2023/04/10 06:08:47;;;;;;;13.23;7.97;;;;;;;-144.57;100.00;62443.72;5067656;28;20040;-59
2023/04/10 06:11:12;;;;;;;10.10;7.38;;;;;;;-144.57;100.00;62443.72;5068822;28;20414;-57
2023/04/10 06:13:42;;;;;;;9.60;7.55;;;;;;;-144.57;100.00;62443.72;5051426;28;20627;-59
2023/04/10 06:16:08;;;;;;;15.00;8.50;;;;;;;-144.57;100.00;62443.72;5068704;28;20064;-61
2023/04/10 06:18:34;;;;;;;11.93;7.35;;;;;;;-144.57;100.00;62443.72;5069086;28;20048;-60
2023/04/10 06:21:00;;;;;;;12.30;8.07;;;;;;;-144.57;100.00;62443.72;5048839;28;20048;-59
2023/04/10 06:23:27;;;;;;;15.68;7.57;;;;;;;-144.57;100.00;62443.72;5047077;28;20558;-59
2023/04/10 06:25:54;;;;;;;17.27;7.90;;;;;;;-144.57;100.00;62443.72;5050548;28;20045;-59
2023/04/10 06:28:20;;;;;;;18.10;8.20;;;;;;;-144.57;100.00;62443.72;5068556;28;20131;-61
2023/04/10 06:30:49;;;;;;;13.52;8.05;;;;;;;-144.57;100.00;62443.72;5068304;28;20044;-60
2023/04/10 06:33:15;;;;;;;12.65;8.35;;;;;;;-144.57;100.00;62443.72;5069344;28;20135;-62
2023/04/10 06:35:43;;;;;;;14.98;8.10;;;;;;;-144.57;100.00;62443.72;5058702;28;20098;-61
2023/04/10 06:38:09;;;;;;;10.90;7.70;;;;;;;-144.57;100.00;62443.72;5055087;28;20065;-61
2023/04/10 06:40:35;;;;;;;10.73;7.75;;;;;;;-144.57;100.00;62443.72;5051127;28;20044;-62
2023/04/10 06:43:01;;;;;;;13.45;7.70;;;;;;;-144.57;100.00;62443.72;5059891;28;20056;-62
2023/04/10 06:45:33;;;;;;;13.38;8.60;;;;;;;-144.57;100.00;62443.72;5058037;28;20498;-61
2023/04/10 06:47:59;;;;;;;14.20;7.95;;;;;;;-144.57;100.00;62443.72;5055370;28;20040;-62
2023/04/10 06:50:26;;;;;;;15.90;8.27;;;;;;;-144.57;100.00;62443.72;5056811;28;20068;-59
2023/04/10 06:52:55;;;;;;;13.57;8.23;;;;;;;-144.57;100.00;62443.72;5060059;28;20091;-62
2023/04/10 06:55:21;;;;;;;12.93;8.30;;;;;;;-144.57;100.00;62443.72;5059678;28;20044;-61
2023/04/10 06:57:46;;;;;;;10.70;7.78;;;;;;;-144.57;100.00;62443.72;5068589;28;20040;-61
2023/04/10 07:00:12;;;;;;;15.60;8.73;;;;;;;-144.57;100.00;62443.72;5070364;28;20051;-61
2023/04/10 07:02:38;;;;;;;12.55;7.88;;;;;;;-144.57;100.00;62443.72;5066192;28;20036;-63
2023/04/10 07:05:04;;;;;;;12.30;7.70;;;;;;;-144.57;100.00;62443.72;5052573;28;20465;-62
2023/04/10 07:07:30;;;;;;;12.98;8.30;;;;;;;-144.57;100.00;62443.72;5065312;28;20119;-59
2023/04/10 07:09:56;;;;;;;10.23;7.70;;;;;;;-144.57;100.00;62443.72;5059110;28;20574;-59
2023/04/10 07:12:22;;;;;;;12.52;8.25;;;;;;;-144.57;100.00;62443.72;5060023;28;20122;-60
2023/04/10 07:14:48;;;;;;;11.80;7.70;;;;;;;-144.57;100.00;62443.72;5062899;28;20052;-59
2023/04/10 07:17:14;;;;;;;13.32;8.50;;;;;;;-144.57;100.00;62443.72;5060000;28;20082;-59
2023/04/10 07:19:40;;;;;;;11.45;7.70;;;;;;;-144.57;100.00;62443.72;5057822;28;20081;-59
2023/04/10 07:22:06;;;;;;;13.88;8.23;;;;;;;-144.57;100.00;62443.72;5059972;28;20033;-62
2023/04/10 07:24:31;;;;;;;10.07;7.85;;;;;;;-144.57;100.00;62443.72;5065610;28;20053;-62
2023/04/10 07:26:57;;;;;;;10.75;7.57;;;;;;;-144.57;100.00;62443.72;5067743;28;20040;-61
2023/04/10 07:29:23;;;;;;;11.30;8.20;;;;;;;-144.57;100.00;62443.72;5070180;28;20226;-60
2023/04/10 07:31:49;;;;;;;13.93;8.07;;;;;;;-144.57;100.00;62443.72;5069457;28;20472;-62
2023/04/10 07:34:15;;;;;;;13.25;8.15;;;;;;;-144.57;100.00;62443.72;5065082;28;20056;-60
2023/04/10 07:36:40;;;;;;;13.57;8.55;;;;;;;-144.57;100.00;62443.72;5058880;28;20127;-59
2023/04/10 07:39:06;;;;;;;12.52;8.70;;;;;;;-144.57;100.00;62443.72;5060418;28;20075;-61
2023/04/10 07:41:32;;;;;;;15.30;8.23;;;;;;;-144.57;100.00;62443.72;5050289;28;20036;-58
2023/04/10 07:43:57;;;;;;;15.52;9.25;;;;;;;-144.57;100.00;62443.72;5054375;28;20037;-56
2023/04/10 07:46:23;;;;;;;14.98;9.18;;;;;;;-144.57;100.00;62443.72;5054246;28;20426;-59
2023/04/10 07:48:49;;;;;;;14.05;9.65;;;;;;;-144.57;100.00;62443.72;5063448;28;20037;-60
2023/04/10 07:51:14;;;;;;;12.45;8.93;;;;;;;-144.57;100.00;62443.72;5068730;28;20494;-58
2023/04/10 07:53:40;;;;;;;16.63;8.27;;;;;;;-144.57;100.00;62443.72;5068227;28;20064;-62
2023/04/10 07:56:07;;;;;;;19.45;9.52;;;;;;;-144.57;100.00;62443.72;5069829;28;20040;-61
2023/04/10 07:58:33;;;;;;;14.52;8.93;;;;;;;-144.57;100.00;62443.72;5068900;28;20045;-60
2023/04/10 08:00:58;;;;;;;12.35;8.02;;;;;;;-144.57;100.00;62443.72;5066636;28;20051;-61
2023/04/10 08:03:25;;;;;;;11.80;8.13;;;;;;;-144.57;100.00;62443.72;5071242;28;20494;-64
2023/04/10 08:05:51;;;;;;;13.32;9.07;;;;;;;-144.57;100.00;62443.72;5060482;28;20052;-63
2023/04/10 08:08:16;;;;;;;14.88;8.90;;;;;;;-144.57;100.00;62443.72;5053355;28;20045;-61
2023/04/10 08:10:42;;;;;;;15.23;9.25;;;;;;;-144.57;100.00;62443.72;5046549;28;20483;-61
2023/04/10 08:13:08;;;;;;;14.57;9.57;;;;;;;-144.57;100.00;62443.72;5036131;28;20040;-61
2023/04/10 08:15:34;;;;;;;37.45;10.77;;;;;;;-144.57;100.00;62443.72;5066213;28;20052;-60
2023/04/10 08:18:00;;;;;;;14.73;8.85;;;;;;;-144.57;100.00;62443.72;5072351;28;20461;-61
2023/04/10 08:20:26;;;;;;;13.43;8.95;;;;;;;-144.57;100.00;62443.72;5074055;28;20044;-61
2023/04/10 08:22:52;;;;;;;12.50;9.13;;;;;;;-144.57;100.00;62443.72;5073912;28;20036;-60
2023/04/10 08:25:18;;;;;;;20.58;10.45;;;;;;;-144.57;100.00;62443.72;5074039;28;20237;-62
2023/04/10 08:27:44;;;;;;;12.27;9.70;;;;;;;-144.57;100.00;62443.72;5071984;28;20036;-60
2023/04/10 08:30:10;;;;;;;16.08;9.05;;;;;;;-144.57;100.00;62443.72;5071848;28;20049;-61
2023/04/10 08:32:37;;;;;;;17.65;9.77;;;;;;;-144.57;100.00;62443.72;5072719;28;20059;-62
2023/04/10 08:35:04;;;;;;;15.25;9.50;;;;;;;-144.57;100.00;62443.72;5072227;28;20531;-62
2023/04/10 08:37:30;;;;;;;11.48;9.20;;;;;;;-144.57;100.00;62443.72;5021544;28;20033;-59
2023/04/10 08:39:56;;;;;;;15.32;8.88;;;;;;;-144.57;100.00;62443.72;5073203;28;20050;-61
2023/04/10 08:42:21;;;;;;;15.40;9.52;;;;;;;-144.57;100.00;62443.72;5072904;28;20105;-60
2023/04/10 08:44:48;;;;;;;14.65;9.20;;;;;;;-144.57;100.00;62443.72;5072596;28;20106;-61
2023/04/10 08:47:14;;;;;;;13.50;9.82;;;;;;;-144.57;100.00;62443.72;5072934;28;20044;-61
2023/04/10 08:49:44;;;;;;;12.85;9.23;;;;;;;-144.57;100.00;62443.72;5072780;28;20454;-60
2023/04/10 08:52:15;;;;;;;15.25;9.80;;;;;;;-144.57;100.00;62443.72;5073570;28;20175;-61
2023/04/10 08:54:42;;;;;;;21.90;10.05;;;;;;;-144.57;100.00;62443.72;5073635;28;20056;-61
2023/04/10 08:57:12;;;;;;;11.98;8.98;;;;;;;-144.57;100.00;62443.72;5071981;28;20045;-60
2023/04/10 08:59:38;;;;;;;14.73;9.27;;;;;;;-144.57;100.00;62443.72;5072842;28;20517;-61
2023/04/10 09:02:05;;;;;;;18.52;10.00;;;;;;;-144.57;100.00;62443.72;5071964;28;20052;-61
2023/04/10 09:04:30;;;;;;;12.77;9.95;;;;;;;-144.57;100.00;62443.72;5073056;28;20132;-61
2023/04/10 09:06:56;;;;;;;24.20;11.32;;;;;;;-144.57;100.00;62443.72;5072148;28;20123;-62
2023/04/10 09:09:22;;;;;;;21.10;11.90;;;;;;;-144.57;100.00;62443.72;5071698;28;20053;-61
2023/04/10 09:11:50;;;;;;;19.75;12.15;;;;;;;-144.57;100.00;62443.72;5072459;28;20036;-61
2023/04/10 09:14:29;;;;;;;15.30;11.05;;;;;;;-144.57;100.00;62443.72;5072313;28;20462;-60
2023/04/10 09:17:10;;;;;;;22.40;11.55;;;;;;;-144.57;100.00;62443.72;5050975;28;20403;-62
2023/04/10 09:19:36;;;;;;;17.10;11.18;;;;;;;-144.57;100.00;62443.72;5051849;28;20120;-60
2023/04/10 09:22:02;;;;;;;19.58;11.73;;;;;;;-144.57;100.00;62443.72;5069989;28;20525;-61
2023/04/10 09:24:27;;;;;;;14.23;11.52;;;;;;;-144.57;100.00;62443.72;5070352;28;20041;-61
2023/04/10 09:26:54;;;;;;;18.40;11.32;;;;;;;-144.57;100.00;62443.72;5071508;28;20049;-61
2023/04/10 09:29:20;;;;;;;19.02;11.82;;;;;;;-144.57;100.00;62443.72;5072400;28;20127;-62
2023/04/10 09:31:45;;;;;;;14.90;10.85;;;;;;;-144.57;100.00;62443.72;5071469;28;20126;-66
2023/04/10 09:34:21;;;;;;;18.77;10.60;;;;;;;-144.57;100.00;62443.72;5053777;28;20052;-64
2023/04/10 09:36:54;;;;;;;18.02;10.27;;;;;;;-144.57;100.00;62443.72;5071232;28;20086;-63
2023/04/10 09:39:34;;;;;;;13.02;9.38;;;;;;;-144.57;100.00;62443.72;5071117;28;20055;-64
2023/04/10 09:42:08;;;;;;;13.57;9.32;;;;;;;-144.57;100.00;62443.72;5018159;28;20127;-63
2023/04/10 09:44:35;;;;;;;23.10;10.45;;;;;;;-144.57;100.00;62443.72;5067615;28;20044;-63
2023/04/10 09:47:13;;;;;;;11.80;9.85;;;;;;;-144.57;100.00;62443.72;5068441;28;20497;-63
2023/04/10 09:49:47;;;;;;;23.38;11.48;;;;;;;-144.57;100.00;62443.72;5069886;28;20391;-63
2023/04/10 09:52:20;;;;;;;13.45;10.45;;;;;;;-144.57;100.00;62443.72;5036252;28;20064;-64
2023/04/10 09:54:45;;;;;;;17.02;10.38;;;;;;;-144.57;100.00;62443.72;5070091;28;20090;-63
2023/04/10 09:57:17;;;;;;;18.77;10.32;;;;;;;-144.57;100.00;62443.72;5072332;28;20442;-66
2023/04/10 09:59:52;;;;;;;14.40;10.20;;;;;;;-144.57;100.00;62443.72;5070690;28;20071;-64
2023/04/10 10:02:23;;;;;;;14.05;10.45;;;;;;;-144.57;100.00;62443.72;5018774;28;20170;-63
2023/04/10 10:04:49;;;;;;;16.70;10.60;;;;;;;-144.57;100.00;62443.72;5070319;28;20493;-64
2023/04/10 10:07:17;;;;;;;13.90;10.10;;;;;;;-144.57;100.00;62443.72;5067262;28;20044;-65
2023/04/10 10:09:44;;;;;;;13.88;10.32;;;;;;;-144.57;100.00;62443.72;5068858;28;20516;-64
2023/04/10 10:12:12;;;;;;;12.65;10.40;;;;;;;-144.57;100.00;62443.72;5068348;28;20036;-65
2023/04/10 10:14:44;;;;;;;15.95;10.60;;;;;;;-144.57;100.00;62443.72;5067159;28;20037;-63
2023/04/10 10:17:11;;;;;;;15.57;10.07;;;;;;;-144.57;100.00;62443.72;5070304;28;20456;-64
2023/04/10 10:20:09;;;;;;;14.70;10.45;;;;;;;-144.57;100.00;62443.72;5070244;28;20113;-63
2023/04/10 10:22:36;;;;;;;16.52;10.30;;;;;;;-144.57;100.00;62443.72;5070846;28;20094;-63
2023/04/10 10:25:02;;;;;;;13.95;9.23;;;;;;;-144.57;100.00;62443.72;5071638;28;20097;-64
2023/04/10 10:27:35;;;;;;;13.52;8.48;;;;;;;-144.57;100.00;62443.72;5070197;28;20044;-64
2023/04/10 10:30:02;;;;;;;12.07;9.32;;;;;;;-144.57;100.00;62443.72;5070522;28;20135;-62
2023/04/10 10:32:30;;;;;;;18.38;9.80;;;;;;;-144.57;100.00;62443.72;5069373;28;20149;-65
2023/04/10 10:34:56;;;;;;;12.45;8.23;;;;;;;-144.57;100.00;62443.72;5062932;28;20045;-61
2023/04/10 10:37:22;;;;;;;10.45;7.43;;;;;;;-144.57;100.00;62443.72;5059275;28;20028;-63
2023/04/10 10:39:54;;;;;;;11.93;7.80;;;;;;;-144.57;100.00;62443.72;5059672;28;20059;-63
2023/04/10 10:43:07;;;;;;;11.80;8.20;;;;;;;-144.57;100.00;62443.72;5059838;28;20048;-64
2023/04/10 10:45:45;;;;;;;11.93;8.13;;;;;;;-144.57;100.00;62443.72;5053363;28;20099;-64
2023/04/10 10:48:11;;;;;;;12.07;9.20;;;;;;;-144.57;100.00;62443.72;5056667;28;20036;-63
2023/04/10 10:50:50;;;;;;;10.55;7.97;;;;;;;-144.57;100.00;62443.72;5058572;28;20118;-63
2023/04/10 10:53:31;;;;;;;15.10;9.10;;;;;;;-144.57;100.00;62443.72;5056899;28;20040;-63
2023/04/10 10:55:56;;;;;;;11.93;8.73;;;;;;;-144.57;100.00;62443.72;5068295;28;20401;-62
2023/04/10 10:58:48;;;;;;;12.32;9.18;;;;;;;-144.57;100.00;62443.72;5069007;28;20040;-65
2023/04/10 11:01:14;;;;;;;14.98;9.88;;;;;;;-144.57;100.00;62443.72;5069754;28;20097;-64
2023/04/10 11:03:40;;;;;;;14.35;9.02;;;;;;;-144.57;100.00;62443.72;5068070;28;20075;-64
2023/04/10 11:06:11;;;;;;;15.48;9.35;;;;;;;-144.57;100.00;62443.72;5069599;28;20049;-63
2023/04/10 11:08:47;;;;;;;16.17;9.15;;;;;;;-144.57;100.00;62443.72;5068663;28;20417;-64
2023/04/10 11:11:15;;;;;;;12.68;8.45;;;;;;;-144.57;100.00;62443.72;5068086;28;20454;-62
2023/04/10 11:13:56;;;;;;;13.65;8.95;;;;;;;-144.57;100.00;62443.72;5064623;28;20549;-63
2023/04/10 11:16:40;;;;;;;11.82;8.40;;;;;;;-144.57;100.00;62443.72;5058499;28;20490;-63